Time;durP1;ratioP1;P1;durP2;ratioP2;P2;SDS_P1;SDS_P2;PMS_P1;PMS_P2;Temp;Humidity;BMP_temperature;BMP_pressure;BME280_temperature;BME280_humidity;BME280_pressure;Samples;Min_cycle;Max_cycle;Signal;HPM_P1;HPM_P2
2021/05/10 00:01:41;;;;;;;6.10;2.60;;;;;;;13.91;100.00;99610.23;1830251;78;26203;-73
2021/05/10 00:04:11;;;;;;;6.13;2.00;;;;;;;13.85;100.00;99597.66;1830249;78;26251;-73
2021/05/10 00:06:40;;;;;;;5.27;1.87;;;;;;;13.84;100.00;99599.38;1830267;78;26207;-73
2021/05/10 00:09:10;;;;;;;6.93;1.93;;;;;;;13.75;100.00;99606.97;1827958;78;26656;-73
2021/05/10 00:11:40;;;;;;;6.77;1.77;;;;;;;13.70;100.00;99603.80;1827556;78;26203;-73
2021/05/10 00:14:11;;;;;;;5.03;2.10;;;;;;;13.63;100.00;99597.36;1827666;78;26659;-73
2021/05/10 00:16:41;;;;;;;3.43;1.77;;;;;;;13.71;100.00;99604.62;1827649;78;26203;-73
2021/05/10 00:19:11;;;;;;;3.30;1.80;;;;;;;13.65;100.00;99609.56;1827389;78;26212;-73
2021/05/10 00:21:40;;;;;;;4.90;2.00;;;;;;;13.66;100.00;99614.81;1827548;78;26215;-73
2021/05/10 00:24:10;;;;;;;4.77;2.33;;;;;;;13.71;100.00;99608.23;1827460;78;26659;-73
2021/05/10 00:26:40;;;;;;;6.17;2.17;;;;;;;13.65;100.00;99603.41;1779913;80;26242;-74
2021/05/10 00:29:10;;;;;;;5.23;1.80;;;;;;;13.55;100.00;99603.80;1788483;80;26216;-74
2021/05/10 00:31:40;;;;;;;7.47;2.17;;;;;;;13.57;100.00;99603.45;1788699;80;26651;-74
2021/05/10 00:34:10;;;;;;;5.17;2.40;;;;;;;13.51;100.00;99603.41;1788661;80;26217;-73
2021/05/10 00:36:39;;;;;;;7.77;2.27;;;;;;;13.52;100.00;99595.30;1788543;80;26647;-74
2021/05/10 00:39:10;;;;;;;5.43;1.90;;;;;;;13.52;100.00;99606.45;1788577;80;26212;-74
2021/05/10 00:41:40;;;;;;;3.90;1.90;;;;;;;13.48;100.00;99602.09;1788619;80;26258;-74
2021/05/10 00:44:10;;;;;;;7.97;2.20;;;;;;;13.40;100.00;99611.31;1788632;80;26236;-74
2021/05/10 00:46:41;;;;;;;7.70;2.00;;;;;;;13.46;100.00;99600.80;1788662;80;26229;-73
2021/05/10 00:49:11;;;;;;;9.17;2.13;;;;;;;13.48;100.00;99594.30;1788662;80;26286;-74
2021/05/10 00:51:40;;;;;;;9.50;3.10;;;;;;;13.41;100.00;99592.05;1788697;80;26287;-73
2021/05/10 00:54:10;;;;;;;7.23;2.30;;;;;;;13.32;100.00;99592.66;1788377;80;26778;-73
2021/05/10 00:56:40;;;;;;;6.37;2.20;;;;;;;13.40;100.00;99595.16;1788656;80;26200;-73
2021/05/10 00:59:10;;;;;;;8.83;2.20;;;;;;;13.34;100.00;99604.30;1788740;80;26227;-73
2021/05/10 01:01:40;;;;;;;5.50;2.00;;;;;;;13.27;100.00;99602.59;1788488;80;26709;-73
2021/05/10 01:04:10;;;;;;;9.57;2.47;;;;;;;13.20;100.00;99603.69;1788579;80;26251;-73
2021/05/10 01:06:40;;;;;;;7.93;2.67;;;;;;;13.21;100.00;99605.33;1788613;80;26212;-72
2021/05/10 01:09:10;;;;;;;6.60;2.40;;;;;;;13.28;100.00;99608.98;1788635;80;26358;-73
2021/05/10 01:11:41;;;;;;;7.13;2.27;;;;;;;13.30;100.00;99613.67;1788616;80;26722;-73
2021/05/10 01:14:10;;;;;;;7.67;3.30;;;;;;;13.20;100.00;99614.27;1788665;80;26236;-73
2021/05/10 01:16:40;;;;;;;6.90;2.73;;;;;;;13.20;100.00;99626.00;1788550;80;26305;-73
2021/05/10 01:19:11;;;;;;;6.60;3.03;;;;;;;13.19;100.00;99625.17;1788545;80;26224;-73
2021/05/10 01:21:41;;;;;;;7.27;3.10;;;;;;;13.13;100.00;99632.67;1788525;80;26239;-73
2021/05/10 01:24:11;;;;;;;9.90;3.10;;;;;;;13.12;100.00;99633.23;1788800;80;26240;-73
2021/05/10 01:26:42;;;;;;;8.37;3.53;;;;;;;13.14;100.00;99624.52;1788566;80;26645;-73
2021/05/10 01:29:12;;;;;;;8.83;3.53;;;;;;;13.11;100.00;99622.41;1788474;80;26207;-73
2021/05/10 01:31:42;;;;;;;8.37;3.70;;;;;;;13.14;100.00;99612.80;1788588;80;26216;-73
2021/05/10 01:34:12;;;;;;;11.43;4.27;;;;;;;13.10;100.00;99606.25;1788636;80;26635;-72
2021/05/10 01:36:42;;;;;;;7.47;3.83;;;;;;;13.05;100.00;99595.24;1788533;80;26228;-73
2021/05/10 01:39:12;;;;;;;8.70;4.03;;;;;;;12.91;100.00;99595.22;1788696;80;26294;-73
2021/05/10 01:41:43;;;;;;;11.80;4.17;;;;;;;12.85;100.00;99590.95;1788675;80;26312;-73
2021/05/10 01:44:13;;;;;;;8.23;4.23;;;;;;;12.92;100.00;99602.43;1788581;80;26381;-73
2021/05/10 01:46:43;;;;;;;9.10;4.17;;;;;;;12.88;100.00;99607.03;1788696;80;26207;-73
2021/05/10 01:49:13;;;;;;;7.33;3.90;;;;;;;12.90;100.00;99622.27;1788477;80;26193;-73
2021/05/10 01:51:42;;;;;;;10.67;4.10;;;;;;;12.86;100.00;99614.89;1788525;79;26742;-73
2021/05/10 01:54:12;;;;;;;13.83;4.83;;;;;;;12.97;100.00;99613.37;1788437;80;26279;-73
2021/05/10 01:56:42;;;;;;;10.97;4.17;;;;;;;12.88;100.00;99612.61;1788527;79;26211;-72
2021/05/10 01:59:12;;;;;;;12.57;4.60;;;;;;;12.90;100.00;99604.14;1788724;80;26220;-73
2021/05/10 02:01:41;;;;;;;13.73;4.40;;;;;;;12.94;100.00;99603.73;1788723;80;26703;-73
2021/05/10 02:04:11;;;;;;;8.80;4.00;;;;;;;12.91;100.00;99603.00;1788411;80;26314;-73
2021/05/10 02:06:41;;;;;;;10.47;3.90;;;;;;;12.94;100.00;99601.51;1788574;80;26681;-73
2021/05/10 02:09:11;;;;;;;6.83;3.30;;;;;;;12.90;100.00;99609.72;1788508;80;26337;-73
2021/05/10 02:11:41;;;;;;;11.00;3.67;;;;;;;12.81;100.00;99608.91;1788582;80;26637;-73
2021/05/10 02:14:10;;;;;;;10.53;3.87;;;;;;;12.69;100.00;99618.52;1788587;80;26286;-73
2021/05/10 02:16:40;;;;;;;10.57;3.50;;;;;;;12.59;100.00;99618.27;1788574;80;26216;-73
2021/05/10 02:19:10;;;;;;;9.77;3.17;;;;;;;12.62;100.00;99627.36;1788605;80;26216;-73
2021/05/10 02:21:40;;;;;;;7.10;3.23;;;;;;;12.65;100.00;99630.08;1788593;80;26225;-73
2021/05/10 02:24:11;;;;;;;6.87;3.10;;;;;;;12.61;100.00;99627.14;1788678;80;26283;-73
2021/05/10 02:26:40;;;;;;;7.87;3.53;;;;;;;12.62;100.00;99627.36;1788519;80;26232;-73
2021/05/10 02:29:10;;;;;;;7.13;3.03;;;;;;;12.60;100.00;99624.09;1788590;80;26228;-73
2021/05/10 02:31:40;;;;;;;8.37;2.97;;;;;;;12.52;100.00;99617.96;1788585;80;26337;-73
2021/05/10 02:34:10;;;;;;;6.73;2.63;;;;;;;12.42;100.00;99614.09;1788676;80;26301;-73
2021/05/10 02:36:40;;;;;;;8.60;2.60;;;;;;;12.41;100.00;99611.66;1788586;79;26735;-73
2021/05/10 02:39:10;;;;;;;7.90;3.37;;;;;;;12.28;100.00;99612.04;1788488;80;26277;-73
2021/05/10 02:41:40;;;;;;;7.53;2.93;;;;;;;12.32;100.00;99618.02;1788572;80;26624;-73
2021/05/10 02:44:11;;;;;;;7.60;2.70;;;;;;;12.30;100.00;99622.29;1788561;80;26275;-73
2021/05/10 02:46:41;;;;;;;10.33;2.93;;;;;;;12.37;100.00;99624.00;1788450;80;26725;-73
2021/05/10 02:49:11;;;;;;;8.37;2.57;;;;;;;12.30;100.00;99628.68;1788572;80;26211;-73
2021/05/10 02:51:41;;;;;;;7.07;2.37;;;;;;;12.37;100.00;99633.75;1788498;80;26624;-73
2021/05/10 02:54:11;;;;;;;6.80;2.50;;;;;;;12.37;100.00;99637.92;1788516;80;26228;-73
2021/05/10 02:56:41;;;;;;;9.40;2.60;;;;;;;12.37;100.00;99635.71;1788674;80;26635;-73
2021/05/10 02:59:11;;;;;;;5.00;1.83;;;;;;;12.32;100.00;99645.07;1788591;80;26216;-73
2021/05/10 03:01:41;;;;;;;8.23;2.53;;;;;;;12.35;100.00;99636.06;1788653;80;26220;-73
2021/05/10 03:04:10;;;;;;;8.23;2.60;;;;;;;12.30;100.00;99631.47;1788484;80;26697;-73
2021/05/10 03:06:40;;;;;;;7.93;2.53;;;;;;;12.31;100.00;99639.25;1788630;80;26303;-73
2021/05/10 03:09:10;;;;;;;7.70;2.10;;;;;;;12.29;100.00;99640.13;1788500;80;26900;-73
2021/05/10 03:11:40;;;;;;;6.47;2.47;;;;;;;12.31;100.00;99639.25;1788504;79;26228;-73
2021/05/10 03:14:09;;;;;;;8.73;2.53;;;;;;;12.40;100.00;99633.69;1788631;80;26228;-73
2021/05/10 03:16:39;;;;;;;8.63;2.50;;;;;;;12.29;100.00;99640.13;1788490;80;26223;-73
2021/05/10 03:19:10;;;;;;;4.40;2.43;;;;;;;12.33;100.00;99644.73;1788512;80;26643;-73
2021/05/10 03:21:40;;;;;;;6.60;2.33;;;;;;;12.29;100.00;99646.52;1788527;80;26282;-73
2021/05/10 03:24:27;;;;;;;7.17;2.40;;;;;;;12.30;100.00;99649.56;1738583;82;33403;-73
2021/05/10 03:26:57;;;;;;;8.53;2.50;;;;;;;12.40;100.00;99648.44;1775668;81;26471;-73
2021/05/10 03:29:26;;;;;;;5.67;2.40;;;;;;;12.36;100.00;99650.23;1775842;81;26678;-73
2021/05/10 03:31:57;;;;;;;10.60;2.50;;;;;;;12.31;100.00;99651.78;1775796;81;26402;-73
2021/05/10 03:34:27;;;;;;;6.13;2.73;;;;;;;12.21;100.00;99646.52;1775939;81;26256;-73
2021/05/10 03:36:57;;;;;;;7.30;2.73;;;;;;;12.24;100.00;99645.86;1775775;81;26403;-73
2021/05/10 03:39:26;;;;;;;7.67;2.10;;;;;;;12.22;100.00;99653.16;1775691;81;26737;-72
2021/05/10 03:41:56;;;;;;;9.10;2.80;;;;;;;12.17;100.00;99664.44;1775907;81;26333;-72
2021/05/10 03:44:26;;;;;;;7.57;2.80;;;;;;;12.28;100.00;99659.37;1775715;81;26263;-72
2021/05/10 03:46:56;;;;;;;9.33;3.20;;;;;;;12.17;100.00;99665.02;1775668;81;26776;-72
2021/05/10 03:49:26;;;;;;;10.00;3.03;;;;;;;11.98;100.00;99658.93;1775878;81;26890;-73
2021/05/10 03:51:56;;;;;;;6.43;2.53;;;;;;;12.01;100.00;99656.88;1775705;81;26346;-73
2021/05/10 03:54:25;;;;;;;6.70;2.67;;;;;;;12.00;100.00;99656.05;1775807;81;26671;-73
2021/05/10 03:56:55;;;;;;;8.53;3.50;;;;;;;11.99;100.00;99657.19;1826271;78;26192;-73
2021/05/10 03:59:25;;;;;;;8.23;2.87;;;;;;;12.00;100.00;99659.41;1827391;78;26207;-72
2021/05/10 04:01:57;;;;;;;12.37;3.30;;;;;;;12.02;100.00;99655.17;1815540;76;930572;-72
2021/05/10 04:04:31;;;;;;;7.37;3.10;;;;;;;11.98;100.00;99654.16;1827643;78;26203;-72
2021/05/10 04:07:14;;;;;;;10.80;3.37;;;;;;;12.01;100.00;99666.63;1827145;77;26706;-72
2021/05/10 04:09:53;;;;;;;8.87;3.13;;;;;;;11.94;100.00;99669.06;1826255;78;26216;-72
2021/05/10 04:15:09;;;;;;;7.10;3.20;;;;;;;12.01;100.00;99662.44;1830393;78;26313;-72
2021/05/10 04:17:39;;;;;;;7.73;3.03;;;;;;;11.92;100.00;99676.33;1830174;78;26812;-72
2021/05/10 04:20:11;;;;;;;5.40;2.90;;;;;;;11.90;100.00;99673.04;1830366;78;26312;-72
2021/05/10 04:22:41;;;;;;;6.03;3.03;;;;;;;11.86;100.00;99667.30;1830392;78;26218;-72
2021/05/10 04:25:12;;;;;;;10.77;3.97;;;;;;;11.91;100.00;99673.30;1830310;78;26293;-73
2021/05/10 04:27:42;;;;;;;8.87;3.47;;;;;;;11.94;100.00;99685.16;1830241;78;26212;-72
2021/05/10 04:30:15;;;;;;;10.40;3.10;;;;;;;12.12;100.00;99687.42;1830162;78;26302;-73
2021/05/10 04:32:45;;;;;;;9.03;3.60;;;;;;;12.11;100.00;99688.56;1830261;78;26266;-73
2021/05/10 04:35:15;;;;;;;9.83;3.70;;;;;;;12.14;100.00;99684.59;1830151;78;26215;-73
2021/05/10 04:37:44;;;;;;;10.60;3.60;;;;;;;12.04;100.00;99692.41;1830364;78;26623;-73
2021/05/10 04:40:16;;;;;;;8.50;3.13;;;;;;;12.17;100.00;99685.89;1830347;78;26208;-73
2021/05/10 04:42:48;;;;;;;10.93;3.53;;;;;;;12.13;100.00;99683.51;1830165;78;26690;-73
2021/05/10 04:45:18;;;;;;;7.37;3.37;;;;;;;12.09;100.00;99687.52;1830270;78;26215;-73
2021/05/10 04:47:48;;;;;;;11.03;3.93;;;;;;;12.11;100.00;99689.95;1830086;78;26686;-73
2021/05/10 04:50:19;;;;;;;8.60;3.10;;;;;;;12.13;100.00;99684.33;1830246;78;26216;-73
2021/05/10 04:52:49;;;;;;;8.20;3.33;;;;;;;12.15;100.00;99689.58;1830505;78;26285;-73
2021/05/10 04:55:18;;;;;;;8.03;3.20;;;;;;;12.18;100.00;99693.92;1830253;78;26662;-73
2021/05/10 04:57:48;;;;;;;9.20;3.20;;;;;;;12.22;100.00;99692.70;1830535;78;26192;-73
2021/05/10 05:00:21;;;;;;;10.93;3.53;;;;;;;12.25;100.00;99695.66;1830581;78;26619;-73
2021/05/10 05:02:50;;;;;;;9.60;3.53;;;;;;;12.27;100.00;99689.77;1830372;78;26345;-73
2021/05/10 05:05:20;;;;;;;9.60;3.20;;;;;;;12.32;100.00;99693.80;1830384;78;26647;-74
2021/05/10 05:07:50;;;;;;;8.87;3.50;;;;;;;12.38;100.00;99689.69;1830605;78;26215;-73
2021/05/10 05:10:20;;;;;;;7.07;3.10;;;;;;;12.39;100.00;99695.52;1830307;78;26764;-73
2021/05/10 05:12:51;;;;;;;8.17;3.43;;;;;;;12.31;100.00;99689.37;1827625;77;26768;-73
2021/05/10 05:15:22;;;;;;;9.77;3.60;;;;;;;12.32;100.00;99686.84;1827553;78;26211;-73
2021/05/10 05:17:52;;;;;;;7.87;3.07;;;;;;;12.36;100.00;99682.25;1827461;78;26624;-72
2021/05/10 05:20:21;;;;;;;8.37;3.30;;;;;;;12.29;100.00;99684.11;1827482;78;26212;-73
2021/05/10 05:22:51;;;;;;;12.67;3.83;;;;;;;12.38;100.00;99687.48;1827452;78;26631;-73
2021/05/10 05:25:21;;;;;;;8.23;2.77;;;;;;;12.44;100.00;99695.37;1827406;78;26284;-73
2021/05/10 05:27:51;;;;;;;10.23;3.27;;;;;;;12.46;100.00;99685.27;1827443;78;26293;-73
2021/05/10 05:30:22;;;;;;;8.47;3.00;;;;;;;12.51;100.00;99697.09;1827639;77;26622;-73
2021/05/10 05:32:51;;;;;;;10.57;3.43;;;;;;;12.57;100.00;99701.93;1827578;78;26208;-73
2021/05/10 05:35:21;;;;;;;9.10;3.60;;;;;;;12.43;100.00;99697.08;1827519;78;26309;-73
2021/05/10 05:37:51;;;;;;;9.53;3.53;;;;;;;12.48;100.00;99696.92;1827439;78;26200;-72
2021/05/10 05:40:21;;;;;;;7.73;3.17;;;;;;;12.45;100.00;99708.12;1827596;78;26216;-74
2021/05/10 05:42:50;;;;;;;12.90;3.20;;;;;;;12.51;100.00;99711.02;1827412;78;26203;-74
2021/05/10 05:45:21;;;;;;;10.90;3.50;;;;;;;12.50;100.00;99703.80;1827903;78;26615;-73
2021/05/10 05:47:51;;;;;;;11.57;3.50;;;;;;;12.53;100.00;99703.73;1828359;77;26207;-73
2021/05/10 05:50:21;;;;;;;12.10;3.40;;;;;;;12.55;100.00;99710.60;1827468;78;26262;-73
2021/05/10 05:52:51;;;;;;;11.87;3.73;;;;;;;12.62;100.00;99715.11;1827476;78;26211;-73
2021/05/10 05:55:21;;;;;;;8.03;3.03;;;;;;;12.63;100.00;99715.93;1827580;77;26655;-73
2021/05/10 05:57:51;;;;;;;10.57;3.40;;;;;;;12.69;100.00;99721.03;1827532;78;26216;-73
2021/05/10 06:00:23;;;;;;;12.17;2.80;;;;;;;12.64;100.00;99716.19;1827476;78;26720;-73
2021/05/10 06:02:52;;;;;;;10.20;3.07;;;;;;;12.62;100.00;99713.71;1827556;78;26666;-73
2021/05/10 06:05:22;;;;;;;7.23;2.70;;;;;;;12.64;100.00;99717.58;1828019;78;26180;-74
2021/05/10 06:07:53;;;;;;;9.27;2.70;;;;;;;12.68;100.00;99714.38;1827397;78;26227;-75
2021/05/10 06:10:25;;;;;;;8.43;3.20;;;;;;;12.75;100.00;99718.31;1827448;78;26631;-75
2021/05/10 06:12:56;;;;;;;9.90;3.10;;;;;;;12.77;100.00;99720.78;1827727;78;26325;-75
2021/05/10 06:15:26;;;;;;;7.67;3.00;;;;;;;12.79;100.00;99719.89;1827502;78;26293;-75
2021/05/10 06:17:57;;;;;;;10.57;2.67;;;;;;;12.89;100.00;99723.73;1827622;78;26192;-75
2021/05/10 06:20:27;;;;;;;10.00;2.73;;;;;;;12.92;100.00;99727.84;1827465;78;26265;-76
2021/05/10 06:22:57;;;;;;;9.10;2.60;;;;;;;12.91;100.00;99729.81;1827527;78;26216;-76
2021/05/10 06:25:28;;;;;;;8.33;2.67;;;;;;;13.02;100.00;99728.89;1827476;78;26192;-76
2021/05/10 06:27:59;;;;;;;12.43;3.00;;;;;;;13.08;100.00;99731.77;1827559;78;26227;-76
2021/05/10 06:30:29;;;;;;;9.73;2.43;;;;;;;13.14;100.00;99736.86;1827493;78;26211;-75
2021/05/10 06:32:58;;;;;;;10.17;2.20;;;;;;;13.15;100.00;99737.69;1827376;78;26223;-76
2021/05/10 06:35:28;;;;;;;9.10;2.30;;;;;;;13.25;100.00;99744.91;1827565;78;26270;-76
2021/05/10 06:37:58;;;;;;;11.57;2.73;;;;;;;13.29;100.00;99739.73;1827353;78;26665;-75
2021/05/10 06:40:28;;;;;;;9.27;2.97;;;;;;;13.35;100.00;99741.78;1827727;78;26704;-75
2021/05/10 06:42:58;;;;;;;9.43;2.27;;;;;;;13.35;100.00;99745.97;1827860;78;26639;-75
2021/05/10 06:45:28;;;;;;;9.27;2.47;;;;;;;13.42;100.00;99749.89;1827391;78;26265;-75
2021/05/10 06:47:58;;;;;;;10.47;2.47;;;;;;;13.46;100.00;99748.07;1827379;78;26223;-75
2021/05/10 06:50:28;;;;;;;8.37;2.27;;;;;;;13.42;100.00;99749.89;1827729;78;26705;-75
2021/05/10 06:52:58;;;;;;;9.63;2.30;;;;;;;13.35;100.00;99752.34;1827499;78;26208;-76
2021/05/10 06:55:28;;;;;;;10.17;2.90;;;;;;;13.49;100.00;99752.98;1827618;78;26220;-75
2021/05/10 06:58:09;;;;;;;8.43;2.37;;;;;;;13.61;100.00;99760.66;1827521;78;26624;-75
2021/05/10 07:00:39;;;;;;;8.37;2.13;;;;;;;13.62;100.00;99755.33;1827373;78;26683;-76
2021/05/10 07:03:09;;;;;;;8.50;2.33;;;;;;;13.58;100.00;99756.58;1827487;78;26301;-75
2021/05/10 07:05:39;;;;;;;12.00;2.10;;;;;;;13.69;100.00;99758.45;1827528;78;26282;-75
2021/05/10 07:08:14;;;;;;;6.17;2.07;;;;;;;13.78;100.00;99760.61;1827508;78;26246;-76
2021/05/10 07:10:49;;;;;;;11.50;2.53;;;;;;;13.67;100.00;99756.55;1827682;77;26204;-75
2021/05/10 07:13:20;;;;;;;10.63;2.17;;;;;;;13.73;100.00;99768.37;1828030;77;26333;-75
2021/05/10 07:15:51;;;;;;;11.50;2.50;;;;;;;13.76;100.00;99764.90;1827455;78;26251;-74
2021/05/10 07:18:21;;;;;;;9.77;2.70;;;;;;;13.60;100.00;99756.25;1828584;77;26216;-74
2021/05/10 07:20:51;;;;;;;12.03;2.50;;;;;;;13.56;100.00;99759.47;1827706;78;26203;-74
2021/05/10 07:23:22;;;;;;;6.87;1.83;;;;;;;13.57;100.00;99762.48;1827440;78;26313;-74
2021/05/10 07:25:52;;;;;;;6.33;2.00;;;;;;;13.61;100.00;99764.27;1827721;78;26709;-74
2021/05/10 07:28:23;;;;;;;9.47;2.33;;;;;;;13.57;100.00;99777.25;1827353;78;26208;-74
2021/05/10 07:30:53;;;;;;;8.17;2.00;;;;;;;13.54;100.00;99777.92;1827510;78;26211;-75
2021/05/10 07:33:23;;;;;;;8.13;2.13;;;;;;;13.70;100.00;99778.20;1827675;78;26666;-74
2021/05/10 07:35:52;;;;;;;11.37;2.50;;;;;;;13.68;100.00;99779.95;1827423;78;26220;-73
2021/05/10 07:38:22;;;;;;;7.77;1.87;;;;;;;14.00;100.00;99780.49;1827474;78;26639;-75
2021/05/10 07:40:52;;;;;;;8.73;1.87;;;;;;;14.17;100.00;99787.98;1827483;78;26208;-74
2021/05/10 07:43:23;;;;;;;5.10;1.80;;;;;;;14.30;100.00;99779.95;1827522;78;26231;-75
2021/05/10 07:45:52;;;;;;;6.93;2.13;;;;;;;14.59;100.00;99779.98;1827524;78;26274;-75
2021/05/10 07:48:22;;;;;;;8.70;2.33;;;;;;;14.56;100.00;99780.67;1827496;78;26659;-74
2021/05/10 07:50:52;;;;;;;7.60;2.13;;;;;;;14.67;100.00;99779.72;1827518;78;26199;-75
2021/05/10 07:53:22;;;;;;;10.13;2.03;;;;;;;14.45;100.00;99780.25;1827434;78;26659;-75
2021/05/10 07:55:53;;;;;;;7.00;1.63;;;;;;;14.31;100.00;99782.42;1827307;78;26643;-74
2021/05/10 07:58:25;;;;;;;8.80;1.80;;;;;;;14.21;100.00;99781.39;1827495;78;26207;-74
2021/05/10 08:00:57;;;;;;;9.07;2.20;;;;;;;14.10;100.00;99781.53;1827430;78;26192;-74
2021/05/10 08:03:28;;;;;;;9.57;2.30;;;;;;;14.31;100.00;99789.41;1827572;78;26682;-74
2021/05/10 08:05:59;;;;;;;8.27;2.07;;;;;;;14.35;100.00;99783.42;1827414;78;26199;-74
2021/05/10 08:08:30;;;;;;;6.23;1.83;;;;;;;14.41;100.00;99781.27;1827339;78;26282;-74
2021/05/10 08:11:02;;;;;;;7.07;1.67;;;;;;;14.50;100.00;99786.23;1827318;78;26682;-74
2021/05/10 08:13:32;;;;;;;8.03;1.60;;;;;;;14.47;100.00;99775.13;1828854;77;26722;-74
2021/05/10 08:16:03;;;;;;;8.80;1.73;;;;;;;14.32;100.00;99781.27;1830351;78;26671;-75
2021/05/10 08:18:33;;;;;;;8.23;2.23;;;;;;;14.36;100.00;99772.50;1830285;78;26661;-75
2021/05/10 08:21:02;;;;;;;7.70;2.00;;;;;;;14.46;100.00;99779.08;1830501;78;26281;-74
2021/05/10 08:23:32;;;;;;;9.27;2.73;;;;;;;14.50;100.00;99784.23;1830236;78;26283;-72
2021/05/10 08:26:03;;;;;;;6.90;1.80;;;;;;;14.51;100.00;99772.48;1830450;78;26207;-73
2021/05/10 08:28:32;;;;;;;7.03;1.73;;;;;;;14.38;100.00;99781.34;1830227;78;26313;-74
2021/05/10 08:31:02;;;;;;;7.67;2.03;;;;;;;14.23;100.00;99779.09;1830232;78;26280;-74
2021/05/10 08:33:32;;;;;;;10.37;2.17;;;;;;;14.16;100.00;99799.75;1830564;78;26212;-73
2021/05/10 08:36:02;;;;;;;8.73;1.80;;;;;;;13.98;100.00;99809.34;1830420;78;26270;-73
2021/05/10 08:38:32;;;;;;;7.63;2.33;;;;;;;14.20;100.00;99803.52;1830310;78;26293;-72
2021/05/10 08:41:01;;;;;;;8.53;1.70;;;;;;;14.39;100.00;99801.14;1830405;78;26281;-73
2021/05/10 08:43:32;;;;;;;5.70;1.80;;;;;;;14.33;100.00;99805.84;1830425;78;26215;-72
2021/05/10 08:46:04;;;;;;;9.37;2.27;;;;;;;14.44;100.00;99805.16;1830328;78;26207;-73
2021/05/10 08:48:34;;;;;;;8.33;2.00;;;;;;;14.48;100.00;99802.50;1830598;78;26196;-73
2021/05/10 08:51:05;;;;;;;7.17;1.73;;;;;;;14.60;100.00;99808.18;1830344;78;26284;-73
2021/05/10 08:53:36;;;;;;;11.13;1.90;;;;;;;14.59;100.00;99809.33;1830426;78;26639;-73
2021/05/10 08:56:08;;;;;;;8.53;2.00;;;;;;;14.55;100.00;99815.35;1830333;78;26211;-73
2021/05/10 08:58:41;;;;;;;10.37;2.43;;;;;;;14.31;100.00;99822.11;1830682;78;26728;-73
2021/05/10 09:01:13;;;;;;;8.07;1.97;;;;;;;14.34;100.00;99831.20;1830445;78;26339;-72
2021/05/10 09:03:45;;;;;;;9.13;2.27;;;;;;;14.46;100.00;99829.98;1830405;78;26235;-73
2021/05/10 09:06:19;;;;;;;10.53;2.83;;;;;;;14.63;100.00;99836.05;1830490;78;26204;-72
2021/05/10 09:08:51;;;;;;;8.17;2.10;;;;;;;14.62;100.00;99835.23;1830366;78;26223;-73
2021/05/10 09:11:22;;;;;;;6.87;2.23;;;;;;;14.57;100.00;99838.20;1830386;78;26305;-73
2021/05/10 09:13:57;;;;;;;8.10;2.60;;;;;;;14.38;100.00;99844.20;1830282;78;26266;-73
2021/05/10 09:16:27;;;;;;;8.67;2.40;;;;;;;14.52;100.00;99833.63;1830435;78;26651;-73
2021/05/10 09:19:00;;;;;;;9.37;2.50;;;;;;;14.47;100.00;99848.36;1830331;78;26211;-73
2021/05/10 09:21:30;;;;;;;6.90;2.40;;;;;;;14.46;100.00;99850.33;1830420;78;26216;-73
2021/05/10 09:24:00;;;;;;;8.10;1.77;;;;;;;14.54;100.00;99861.25;1830437;78;26673;-72
2021/05/10 09:26:33;;;;;;;9.50;2.30;;;;;;;14.68;100.00;99850.63;1830397;78;26247;-73
2021/05/10 09:29:03;;;;;;;8.53;1.50;;;;;;;14.73;100.00;99846.83;1830422;78;26219;-73
2021/05/10 09:31:35;;;;;;;6.87;1.77;;;;;;;14.67;100.00;99843.42;1830360;78;26281;-72
2021/05/10 09:34:08;;;;;;;7.10;1.90;;;;;;;14.99;100.00;99846.92;1830526;78;26280;-72
2021/05/10 09:36:40;;;;;;;6.10;1.80;;;;;;;15.12;100.00;99841.41;1829520;78;26211;-73
2021/05/10 09:39:14;;;;;;;8.77;2.40;;;;;;;15.10;100.00;99852.95;1830386;78;26215;-72
2021/05/10 09:42:00;;;;;;;5.87;2.00;;;;;;;14.92;100.00;99859.81;1827908;78;26223;-73
2021/05/10 09:44:41;;;;;;;8.37;2.03;;;;;;;14.57;100.00;99876.76;1830327;78;26704;-73
2021/05/10 09:47:12;;;;;;;8.40;2.53;;;;;;;14.35;100.00;99895.70;1830278;78;26219;-73
2021/05/10 09:49:46;;;;;;;7.67;1.47;;;;;;;14.17;100.00;99894.93;1830434;78;26215;-72
2021/05/10 09:52:22;;;;;;;13.80;2.13;;;;;;;13.97;100.00;99904.02;1830465;78;26200;-73
2021/05/10 09:54:57;;;;;;;9.17;2.20;;;;;;;13.85;100.00;99912.24;1830391;78;26298;-73
2021/05/10 09:57:27;;;;;;;9.07;2.20;;;;;;;13.77;100.00;99920.88;1830290;78;26191;-73
2021/05/10 10:00:15;;;;;;;8.00;2.33;;;;;;;13.75;100.00;99918.15;1830394;78;26192;-73
2021/05/10 10:02:46;;;;;;;9.33;2.43;;;;;;;14.26;100.00;99917.25;1830422;78;26235;-73
2021/05/10 10:05:15;;;;;;;8.83;2.87;;;;;;;14.64;100.00;99922.34;1830491;78;26204;-73
2021/05/10 10:07:45;;;;;;;9.97;2.00;;;;;;;14.78;100.00;99924.91;1830360;78;26203;-73
2021/05/10 10:10:16;;;;;;;9.93;2.27;;;;;;;14.85;100.00;99928.00;1830289;78;26285;-73
2021/05/10 10:12:47;;;;;;;7.03;2.03;;;;;;;14.96;100.00;99932.90;1830408;78;26215;-73
2021/05/10 10:15:17;;;;;;;6.63;1.40;;;;;;;15.15;100.00;99926.85;1830369;77;26719;-73
2021/05/10 10:17:47;;;;;;;6.97;2.00;;;;;;;15.26;100.00;99932.89;1830433;78;26207;-73
2021/05/10 10:20:20;;;;;;;7.63;1.50;;;;;;;15.26;100.00;99932.89;1830289;78;26643;-73
2021/05/10 10:22:51;;;;;;;4.67;1.40;;;;;;;15.20;100.00;99923.86;1830275;78;26639;-73
2021/05/10 10:25:22;;;;;;;6.80;1.83;;;;;;;15.25;100.00;99927.05;1830566;78;26239;-73
2021/05/10 10:27:53;;;;;;;9.77;1.63;;;;;;;15.34;100.00;99931.44;1830376;78;26301;-73
2021/05/10 10:30:26;;;;;;;8.20;1.50;;;;;;;15.56;100.00;99931.73;1830361;78;26224;-73
2021/05/10 10:32:59;;;;;;;5.60;1.67;;;;;;;15.72;100.00;99931.34;1830554;78;26673;-73
2021/05/10 10:35:30;;;;;;;6.13;1.63;;;;;;;15.83;100.00;99941.56;1830319;78;26267;-72
2021/05/10 10:38:02;;;;;;;5.67;1.60;;;;;;;15.85;100.00;99937.25;1830413;78;26672;-72
2021/05/10 10:40:32;;;;;;;4.37;1.50;;;;;;;15.79;100.00;99934.41;1830468;77;26203;-71
2021/05/10 10:43:25;;;;;;;6.33;1.37;;;;;;;15.72;100.00;99941.14;1830423;78;26267;-72
2021/05/10 10:46:23;;;;;;;6.23;2.03;;;;;;;15.81;100.00;99939.67;1830527;78;26716;-72
2021/05/10 10:48:55;;;;;;;8.13;1.77;;;;;;;16.09;100.00;99937.92;1830371;78;26203;-72
2021/05/10 10:51:26;;;;;;;4.60;1.40;;;;;;;16.41;100.00;99951.70;1830254;78;26203;-72
2021/05/10 10:53:56;;;;;;;5.63;1.73;;;;;;;16.53;100.00;99955.94;1830343;78;26211;-72
2021/05/10 10:56:53;;;;;;;4.97;1.33;;;;;;;16.61;100.00;99954.23;1830481;78;26212;-71
2021/05/10 10:59:29;;;;;;;6.63;2.00;;;;;;;16.71;100.00;99953.22;1830327;78;26215;-71
2021/05/10 11:02:01;;;;;;;5.37;1.50;;;;;;;16.62;100.00;99960.08;1830343;78;26206;-71
2021/05/10 11:04:31;;;;;;;6.80;1.87;;;;;;;16.57;100.00;99972.33;1827757;78;26211;-71
2021/05/10 11:07:01;;;;;;;7.37;1.80;;;;;;;16.65;100.00;99961.60;1830256;78;26258;-71
2021/05/10 11:09:54;;;;;;;3.70;1.20;;;;;;;16.79;100.00;99978.94;1830251;78;26331;-71
2021/05/10 11:12:52;;;;;;;7.60;1.33;;;;;;;16.77;100.00;99979.06;1830573;78;26215;-71
2021/05/10 11:15:49;;;;;;;7.10;1.17;;;;;;;16.70;100.00;99975.98;1829757;78;26922;-73
2021/05/10 11:18:37;;;;;;;5.80;1.80;;;;;;;16.40;100.00;99993.51;1830254;78;26244;-72
2021/05/10 11:21:10;;;;;;;7.60;1.53;;;;;;;16.20;100.00;100005.58;1830318;78;26701;-72
2021/05/10 11:23:42;;;;;;;5.87;2.00;;;;;;;16.17;100.00;100003.47;1827979;78;26671;-71
2021/05/10 11:26:15;;;;;;;7.90;2.00;;;;;;;16.29;100.00;100000.14;1827626;78;26219;-72
2021/05/10 11:28:49;;;;;;;6.60;1.73;;;;;;;16.26;100.00;100003.61;1824634;78;26223;-71
2021/05/10 11:31:21;;;;;;;6.17;1.67;;;;;;;16.11;100.00;100004.25;1827621;78;26303;-72
2021/05/10 11:34:15;;;;;;;5.67;1.73;;;;;;;16.09;100.00;100012.16;1826318;78;26710;-71
2021/05/10 11:36:52;;;;;;;8.73;2.17;;;;;;;15.98;100.00;100022.73;1830396;78;26288;-71
2021/05/10 11:39:25;;;;;;;8.80;2.20;;;;;;;15.86;100.00;100031.31;1830493;78;26309;-71
2021/05/10 11:42:00;;;;;;;5.17;1.67;;;;;;;15.63;100.00;100028.57;1830325;78;26274;-71
2021/05/10 11:44:33;;;;;;;7.97;2.23;;;;;;;15.86;100.00;100018.70;1828708;78;26399;-72
2021/05/10 11:47:05;;;;;;;7.63;1.80;;;;;;;16.07;100.00;100027.11;1827337;78;26196;-72